createdAt,value
2016-12-03T00:00:04.949Z,101205
2016-12-03T00:01:06.364Z,101204
2016-12-03T00:02:06.344Z,101197
2016-12-03T00:03:06.449Z,101204
2016-12-03T00:04:06.444Z,101202
2016-12-03T00:05:06.420Z,101200
2016-12-03T00:06:05.129Z,101200
2016-12-03T00:07:05.171Z,101207
2016-12-03T00:08:06.589Z,101204
2016-12-03T00:09:05.292Z,101207
2016-12-03T00:10:05.299Z,101206
2016-12-03T00:11:05.347Z,101199
2016-12-03T00:12:06.690Z,101203
2016-12-03T00:13:06.716Z,101202
2016-12-03T00:14:05.363Z,101204
2016-12-03T00:15:05.462Z,101200
2016-12-03T00:16:06.803Z,101204
2016-12-03T00:17:06.844Z,101200
2016-12-03T00:18:05.472Z,101197
2016-12-03T00:19:06.910Z,101198
2016-12-03T00:20:07.034Z,101200
2016-12-03T00:21:05.661Z,101198
2016-12-03T00:22:05.765Z,101198
2016-12-03T00:23:05.798Z,101192
2016-12-03T00:24:05.853Z,101200
2016-12-03T00:25:05.888Z,101197
2016-12-03T00:26:05.942Z,101194
2016-12-03T00:27:07.280Z,101197
2016-12-03T00:28:06.013Z,101201
2016-12-03T00:29:06.058Z,101200
2016-12-03T00:30:07.392Z,101203
2016-12-03T00:31:07.466Z,101200
2016-12-03T00:32:07.466Z,101192
2016-12-03T00:33:06.139Z,101199
2016-12-03T00:34:06.279Z,101204
2016-12-03T00:35:06.288Z,101201
2016-12-03T00:36:08.259Z,101199
2016-12-03T00:37:07.682Z,101195
2016-12-03T00:38:07.807Z,101196
2016-12-03T00:39:07.732Z,101186
2016-12-03T00:40:06.504Z,101198
2016-12-03T00:41:06.598Z,101195
2016-12-03T00:42:06.651Z,101196
2016-12-03T00:43:08.018Z,101201
2016-12-03T00:44:06.716Z,101201
2016-12-03T00:45:06.814Z,101200
2016-12-03T00:46:06.817Z,101195
2016-12-03T00:47:08.220Z,101203
2016-12-03T00:48:08.273Z,101203
2016-12-03T00:49:08.362Z,101202
2016-12-03T00:50:08.389Z,101200
2016-12-03T00:51:08.498Z,101202
2016-12-03T00:52:07.175Z,101200
2016-12-03T00:53:07.243Z,101203
2016-12-03T00:54:07.282Z,101202
2016-12-03T00:55:08.746Z,101200
2016-12-03T00:56:07.385Z,101203
2016-12-03T00:57:07.420Z,101208
2016-12-03T00:58:07.517Z,101209
2016-12-03T00:59:08.887Z,101207
2016-12-03T01:00:08.870Z,101205
2016-12-03T01:01:07.555Z,101210
2016-12-03T01:02:07.679Z,101213
2016-12-03T01:03:09.003Z,101204
2016-12-03T01:04:07.713Z,101208
2016-12-03T01:05:07.693Z,101209
2016-12-03T01:06:09.103Z,101208
2016-12-03T01:07:07.737Z,101209
2016-12-03T01:08:07.812Z,101207
2016-12-03T01:09:09.261Z,101207
2016-12-03T01:10:07.867Z,101201
2016-12-03T01:11:09.308Z,101203
2016-12-03T01:12:09.374Z,101201
2016-12-03T01:13:09.373Z,101207
2016-12-03T01:14:08.030Z,101205
2016-12-03T01:15:09.435Z,101206
2016-12-03T01:16:09.497Z,101194
2016-12-03T01:17:09.591Z,101198
2016-12-03T01:18:08.263Z,101200
2016-12-03T01:19:09.613Z,101204
2016-12-03T01:20:09.631Z,101194
2016-12-03T01:21:09.678Z,101201
2016-12-03T01:22:09.680Z,101205
2016-12-03T01:23:09.824Z,101199
2016-12-03T01:24:09.922Z,101210
2016-12-03T01:25:09.884Z,101204
2016-12-03T01:26:08.533Z,101203
2016-12-03T01:27:08.618Z,101201
2016-12-03T01:28:08.580Z,101194
2016-12-03T01:29:10.143Z,101201
2016-12-03T01:30:10.052Z,101206
2016-12-03T01:31:10.080Z,101198
2016-12-03T01:32:08.821Z,101206
2016-12-03T01:33:10.157Z,101210
2016-12-03T01:34:10.181Z,101209
2016-12-03T01:35:08.924Z,101208
2016-12-03T01:36:08.918Z,101205
2016-12-03T01:37:10.333Z,101212
2016-12-03T01:38:09.090Z,101200
2016-12-03T01:39:09.110Z,101207
2016-12-03T01:40:10.564Z,101202
2016-12-03T01:41:10.620Z,101204
2016-12-03T01:42:09.326Z,101198
2016-12-03T01:43:09.317Z,101209
2016-12-03T01:44:10.727Z,101206
2016-12-03T01:45:09.389Z,101207
2016-12-03T01:46:09.463Z,101205
2016-12-03T01:47:09.623Z,101209
2016-12-03T01:48:09.662Z,101200
2016-12-03T01:49:09.673Z,101211
2016-12-03T01:50:09.763Z,101209
2016-12-03T01:51:09.792Z,101212
2016-12-03T01:52:09.884Z,101210
2016-12-03T01:53:11.222Z,101210
2016-12-03T01:54:09.870Z,101203
2016-12-03T01:55:11.309Z,101212
2016-12-03T01:56:11.376Z,101211
2016-12-03T01:57:11.378Z,101209
2016-12-03T01:58:11.405Z,101211
2016-12-03T01:59:10.147Z,101210
2016-12-03T02:00:10.227Z,101206
2016-12-03T02:01:10.260Z,101210
2016-12-03T02:02:11.670Z,101208
2016-12-03T02:03:10.322Z,101204
2016-12-03T02:04:11.730Z,101212
2016-12-03T02:05:10.447Z,101213
2016-12-03T02:06:11.788Z,101213
2016-12-03T02:07:11.867Z,101211
2016-12-03T02:08:10.573Z,101202
2016-12-03T02:09:11.967Z,101209
2016-12-03T02:10:12.113Z,101208
2016-12-03T02:11:10.829Z,101209
2016-12-03T02:12:12.168Z,101201
2016-12-03T02:13:12.293Z,101207
2016-12-03T02:14:12.308Z,101203
2016-12-03T02:15:12.293Z,101213
2016-12-03T02:16:11.043Z,101211
2016-12-03T02:17:11.042Z,101209
2016-12-03T02:18:11.126Z,101201
2016-12-03T02:19:12.511Z,101211
2016-12-03T02:20:12.569Z,101214
2016-12-03T02:21:11.309Z,101213
2016-12-03T02:22:11.300Z,101208
2016-12-03T02:23:11.366Z,101214
2016-12-03T02:24:12.700Z,101210
2016-12-03T02:25:11.434Z,101212
2016-12-03T02:26:12.855Z,101210
2016-12-03T02:27:11.619Z,101219
2016-12-03T02:28:11.677Z,101218
2016-12-03T02:29:11.699Z,101216
2016-12-03T02:30:11.719Z,101213
2016-12-03T02:31:13.185Z,101208
2016-12-03T02:32:11.932Z,101214
2016-12-03T02:33:11.965Z,101214
2016-12-03T02:34:13.306Z,101215
2016-12-03T02:35:13.415Z,101215
2016-12-03T02:36:12.098Z,101209
2016-12-03T02:37:13.545Z,101214
2016-12-03T02:38:13.596Z,101215
2016-12-03T02:39:12.323Z,101211
2016-12-03T02:40:13.749Z,101217
2016-12-03T02:41:13.819Z,101217
2016-12-03T02:42:13.781Z,101213
2016-12-03T02:43:13.843Z,101208
2016-12-03T02:44:13.903Z,101215
2016-12-03T02:45:14.066Z,101207
2016-12-03T02:46:14.071Z,101217
2016-12-03T02:47:14.094Z,101217
2016-12-03T02:48:14.168Z,101218
2016-12-03T02:49:12.817Z,101216
2016-12-03T02:50:14.292Z,101216
2016-12-03T02:51:12.898Z,101217
2016-12-03T02:52:13.005Z,101217
2016-12-03T02:53:13.103Z,101217
2016-12-03T02:54:14.569Z,101211
2016-12-03T02:55:14.557Z,101221
2016-12-03T02:56:13.319Z,101215
2016-12-03T02:57:14.720Z,101217
2016-12-03T02:58:13.443Z,101215
2016-12-03T02:59:13.499Z,101214
2016-12-03T03:00:14.927Z,101217
2016-12-03T03:01:13.694Z,101216
2016-12-03T03:02:15.083Z,101213
2016-12-03T03:03:13.758Z,101218
2016-12-03T03:04:13.827Z,101216
2016-12-03T03:05:15.221Z,101218
2016-12-03T03:06:13.901Z,101219
2016-12-03T03:07:15.340Z,101214
2016-12-03T03:08:15.402Z,101215
2016-12-03T03:09:15.487Z,101218
2016-12-03T03:10:14.129Z,101217
2016-12-03T03:11:15.541Z,101215
2016-12-03T03:12:15.530Z,101213
2016-12-03T03:13:15.616Z,101213
2016-12-03T03:14:14.372Z,101222
2016-12-03T03:15:14.288Z,101216
2016-12-03T03:16:16.478Z,101216
2016-12-03T03:17:14.549Z,101215
2016-12-03T03:18:15.962Z,101218
2016-12-03T03:19:16.074Z,101216
2016-12-03T03:20:14.769Z,101218
2016-12-03T03:21:14.726Z,101218
2016-12-03T03:22:16.137Z,101220
2016-12-03T03:23:16.224Z,101218
2016-12-03T03:24:16.326Z,101217
2016-12-03T03:25:16.365Z,101221
2016-12-03T03:26:16.404Z,101214
2016-12-03T03:27:15.021Z,101220
2016-12-03T03:28:16.414Z,101221
2016-12-03T03:29:15.147Z,101223
2016-12-03T03:30:15.139Z,101218
2016-12-03T03:31:16.652Z,101215
2016-12-03T03:32:15.307Z,101212
2016-12-03T03:33:16.680Z,101206
2016-12-03T03:34:15.391Z,101216
2016-12-03T03:35:15.366Z,101211
2016-12-03T03:36:15.447Z,101213
2016-12-03T03:37:15.532Z,101216
2016-12-03T03:38:15.529Z,101215
2016-12-03T03:39:15.518Z,101212
2016-12-03T03:40:16.954Z,101215
2016-12-03T03:41:15.652Z,101211
2016-12-03T03:42:16.958Z,101210
2016-12-03T03:43:17.012Z,101206
2016-12-03T03:44:16.995Z,101207
2016-12-03T03:45:15.685Z,101209
2016-12-03T03:46:15.713Z,101204
2016-12-03T03:47:15.816Z,101206
2016-12-03T03:48:17.207Z,101200
2016-12-03T03:49:17.295Z,101203
2016-12-03T03:50:15.993Z,101202
2016-12-03T03:51:16.036Z,101204
2016-12-03T03:52:15.992Z,101197
2016-12-03T03:53:16.067Z,101206
2016-12-03T03:54:17.465Z,101199
2016-12-03T03:55:16.206Z,101193
2016-12-03T03:56:16.299Z,101199
2016-12-03T03:57:17.750Z,101201
2016-12-03T03:58:17.859Z,101189
2016-12-03T03:59:16.586Z,101196
2016-12-03T04:00:16.686Z,101189
2016-12-03T04:01:16.682Z,101198
2016-12-03T04:02:16.720Z,101200
2016-12-03T04:03:16.802Z,101203
2016-12-03T04:04:18.144Z,101206
2016-12-03T04:05:18.150Z,101199
2016-12-03T04:06:16.833Z,101202
2016-12-03T04:07:16.866Z,101203
2016-12-03T04:08:16.967Z,101210
2016-12-03T04:09:16.955Z,101205
2016-12-03T04:10:17.091Z,101211
2016-12-03T04:11:17.118Z,101211
2016-12-03T04:12:18.440Z,101201
2016-12-03T04:13:17.136Z,101213
2016-12-03T04:14:18.590Z,101209
2016-12-03T04:15:17.258Z,101214
2016-12-03T04:16:18.673Z,101213
2016-12-03T04:17:18.686Z,101199
2016-12-03T04:18:17.431Z,101211
2016-12-03T04:19:17.400Z,101207
2016-12-03T04:20:18.822Z,101205
2016-12-03T04:21:17.523Z,101206
2016-12-03T04:22:18.894Z,101207
2016-12-03T04:23:17.575Z,101205
2016-12-03T04:24:17.684Z,101208
2016-12-03T04:25:17.760Z,101201
2016-12-03T04:26:17.798Z,101214
2016-12-03T04:27:17.797Z,101212
2016-12-03T04:28:17.779Z,101210
2016-12-03T04:29:17.907Z,101210
2016-12-03T04:30:19.335Z,101212
2016-12-03T04:31:18.005Z,101211
2016-12-03T04:32:19.413Z,101211
2016-12-03T04:33:18.165Z,101210
2016-12-03T04:34:18.131Z,101206
2016-12-03T04:35:19.535Z,101199
2016-12-03T04:36:18.304Z,101208
2016-12-03T04:37:19.647Z,101205
2016-12-03T04:38:19.737Z,101212
2016-12-03T04:39:18.491Z,101213
2016-12-03T04:40:18.520Z,101213
2016-12-03T04:41:18.515Z,101211
2016-12-03T04:42:18.555Z,101216
2016-12-03T04:43:20.002Z,101209
2016-12-03T04:44:18.683Z,101212
2016-12-03T04:45:18.757Z,101213
2016-12-03T04:46:20.098Z,101208
2016-12-03T04:47:18.816Z,101213
2016-12-03T04:48:20.220Z,101209
2016-12-03T04:49:20.358Z,101217
2016-12-03T04:50:19.042Z,101222
2016-12-03T04:51:20.488Z,101221
2016-12-03T04:52:20.545Z,101219
2016-12-03T04:53:20.567Z,101221
2016-12-03T04:54:20.574Z,101217
2016-12-03T04:55:20.710Z,101223
2016-12-03T04:56:19.464Z,101224
2016-12-03T04:57:20.885Z,101224
2016-12-03T04:58:19.557Z,101228
2016-12-03T04:59:20.868Z,101226
2016-12-03T05:00:20.933Z,101228
2016-12-03T05:01:19.606Z,101234
2016-12-03T05:02:21.079Z,101230
2016-12-03T05:03:19.751Z,101230
2016-12-03T05:04:21.123Z,101229
2016-12-03T05:05:21.150Z,101229
2016-12-03T05:06:19.785Z,101238
2016-12-03T05:07:21.195Z,101226
2016-12-03T05:08:19.892Z,101228
2016-12-03T05:09:20.058Z,101224
2016-12-03T05:10:20.087Z,101230
2016-12-03T05:11:21.456Z,101228
2016-12-03T05:12:21.519Z,101231
2016-12-03T05:13:20.225Z,101232
2016-12-03T05:14:20.286Z,101228
2016-12-03T05:15:20.409Z,101237
2016-12-03T05:16:21.772Z,101239
2016-12-03T05:17:20.503Z,101240
2016-12-03T05:18:21.847Z,101241
2016-12-03T05:19:20.534Z,101232
2016-12-03T05:20:21.940Z,101236
2016-12-03T05:21:20.611Z,101242
2016-12-03T05:22:20.650Z,101235
2016-12-03T05:23:22.000Z,101237
2016-12-03T05:24:21.985Z,101226
2016-12-03T05:25:22.013Z,101237
2016-12-03T05:26:20.787Z,101239
2016-12-03T05:27:20.772Z,101231
2016-12-03T05:28:20.851Z,101234
2016-12-03T05:29:22.226Z,101233
2016-12-03T05:30:22.232Z,101223
2016-12-03T05:31:22.263Z,101223
2016-12-03T05:32:21.318Z,101229
2016-12-03T05:33:22.387Z,101223
2016-12-03T05:34:22.406Z,101231
2016-12-03T05:35:21.107Z,101233
2016-12-03T05:36:22.551Z,101231
2016-12-03T05:37:21.271Z,101234
2016-12-03T05:38:21.290Z,101231
2016-12-03T05:39:21.354Z,101224
2016-12-03T05:40:22.799Z,101235
2016-12-03T05:41:22.821Z,101232
2016-12-03T05:42:22.873Z,101224
2016-12-03T05:43:22.911Z,101230
2016-12-03T05:44:21.633Z,101230
2016-12-03T05:45:21.625Z,101236
2016-12-03T05:46:21.663Z,101235
2016-12-03T05:47:21.762Z,101241
2016-12-03T05:48:21.819Z,101242
2016-12-03T05:49:23.179Z,101247
2016-12-03T05:50:23.166Z,101247
2016-12-03T05:51:23.165Z,101244
2016-12-03T05:52:23.283Z,101244
2016-12-03T05:53:23.330Z,101249
2016-12-03T05:54:23.472Z,101248
2016-12-03T05:55:23.580Z,101251
2016-12-03T05:56:22.243Z,101251
2016-12-03T05:57:22.246Z,101243
2016-12-03T05:58:22.335Z,101252
2016-12-03T05:59:23.732Z,101254
2016-12-03T06:00:22.385Z,101264
2016-12-03T06:01:23.842Z,101260
2016-12-03T06:02:22.596Z,101261
2016-12-03T06:03:22.627Z,101251
2016-12-03T06:04:23.943Z,101259
2016-12-03T06:05:24.085Z,101255
2016-12-03T06:06:22.775Z,101257
2016-12-03T06:07:22.807Z,101255
2016-12-03T06:08:24.105Z,101255
2016-12-03T06:09:24.145Z,101248
2016-12-03T06:10:24.172Z,101258
2016-12-03T06:11:22.900Z,101255
2016-12-03T06:12:24.301Z,101257
2016-12-03T06:13:24.350Z,101262
2016-12-03T06:14:24.396Z,101265
2016-12-03T06:15:23.084Z,101269
2016-12-03T06:16:23.087Z,101269
2016-12-03T06:17:23.127Z,101263
2016-12-03T06:18:23.210Z,101269
2016-12-03T06:19:24.616Z,101276
2016-12-03T06:20:23.300Z,101272
2016-12-03T06:21:23.322Z,101277
2016-12-03T06:22:24.754Z,101276
2016-12-03T06:23:24.784Z,101280
2016-12-03T06:24:23.485Z,101279
2016-12-03T06:25:24.842Z,101278
2016-12-03T06:26:23.513Z,101278
2016-12-03T06:27:24.979Z,101278
2016-12-03T06:28:25.005Z,101282
2016-12-03T06:29:25.058Z,101284
2016-12-03T06:30:25.155Z,101282
2016-12-03T06:31:23.855Z,101287
2016-12-03T06:32:23.902Z,101282
2016-12-03T06:33:23.973Z,101283
2016-12-03T06:34:25.304Z,101280
2016-12-03T06:35:23.999Z,101282
2016-12-03T06:36:25.443Z,101282
2016-12-03T06:37:25.482Z,101283
2016-12-03T06:38:25.517Z,101281
2016-12-03T06:39:25.597Z,101280
2016-12-03T06:40:24.326Z,101282
2016-12-03T06:41:24.428Z,101279
2016-12-03T06:42:24.493Z,101280
2016-12-03T06:43:24.460Z,101282
2016-12-03T06:44:25.932Z,101284
2016-12-03T06:45:25.940Z,101285
2016-12-03T06:46:24.703Z,101280
2016-12-03T06:47:24.680Z,101276
2016-12-03T06:48:24.788Z,101284
2016-12-03T06:49:24.792Z,101284
2016-12-03T06:50:24.815Z,101285
2016-12-03T06:51:26.215Z,101288
2016-12-03T06:52:24.910Z,101286
2016-12-03T06:53:26.291Z,101282
2016-12-03T06:54:26.324Z,101275
2016-12-03T06:55:25.013Z,101282
2016-12-03T06:56:25.074Z,101282
2016-12-03T06:57:25.093Z,101281
2016-12-03T06:58:26.432Z,101288
2016-12-03T06:59:26.483Z,101287
2016-12-03T07:00:26.592Z,101291
2016-12-03T07:01:26.646Z,101284
2016-12-03T07:02:26.687Z,101291
2016-12-03T07:03:25.480Z,101283
2016-12-03T07:04:25.472Z,101284
2016-12-03T07:05:25.576Z,101290
2016-12-03T07:06:25.653Z,101288
2016-12-03T07:07:27.130Z,101290
2016-12-03T07:08:25.801Z,101294
2016-12-03T07:09:27.237Z,101293
2016-12-03T07:10:26.017Z,101291
2016-12-03T07:11:27.378Z,101289
2016-12-03T07:12:27.383Z,101280
2016-12-03T07:13:26.145Z,101295
2016-12-03T07:14:26.218Z,101289
2016-12-03T07:15:26.327Z,101296
2016-12-03T07:16:26.371Z,101296
2016-12-03T07:17:26.501Z,101297
2016-12-03T07:18:27.873Z,101293
2016-12-03T07:19:26.539Z,101294
2016-12-03T07:20:27.895Z,101294
2016-12-03T07:21:27.875Z,101296
2016-12-03T07:22:26.552Z,101296
2016-12-03T07:23:26.650Z,101295
2016-12-03T07:24:26.761Z,101296
2016-12-03T07:25:28.135Z,101293
2016-12-03T07:26:26.827Z,101292
2016-12-03T07:27:26.927Z,101286
2016-12-03T07:28:26.898Z,101299
2016-12-03T07:29:28.298Z,101292
2016-12-03T07:30:28.349Z,101294
2016-12-03T07:31:26.990Z,101295
2016-12-03T07:32:27.058Z,101296
2016-12-03T07:33:27.087Z,101294
2016-12-03T07:34:27.042Z,101297
2016-12-03T07:35:28.540Z,101287
2016-12-03T07:36:28.456Z,101297
2016-12-03T07:37:28.538Z,101293
2016-12-03T07:38:27.270Z,101295
2016-12-03T07:39:28.588Z,101292
2016-12-03T07:40:27.332Z,101292
2016-12-03T07:41:27.355Z,101294
2016-12-03T07:42:28.665Z,101293
2016-12-03T07:43:27.321Z,101294
2016-12-03T07:44:27.427Z,101296
2016-12-03T07:45:28.826Z,101292
2016-12-03T07:46:27.530Z,101291
2016-12-03T07:47:27.554Z,101297
2016-12-03T07:48:28.925Z,101299
2016-12-03T07:49:27.552Z,101294
2016-12-03T07:50:27.626Z,101303
2016-12-03T07:51:27.732Z,101299
2016-12-03T07:52:29.099Z,101293
2016-12-03T07:53:27.756Z,101305
2016-12-03T07:54:27.828Z,101298
2016-12-03T07:55:29.198Z,101299
2016-12-03T07:56:29.748Z,101304
2016-12-03T07:57:27.963Z,101304
2016-12-03T07:58:29.415Z,101306
2016-12-03T07:59:29.472Z,101307
2016-12-03T08:00:29.519Z,101307
2016-12-03T08:01:28.266Z,101311
2016-12-03T08:02:28.214Z,101312
2016-12-03T08:03:28.315Z,101315
2016-12-03T08:04:29.755Z,101314
2016-12-03T08:05:29.815Z,101315
2016-12-03T08:06:29.823Z,101316
2016-12-03T08:07:28.507Z,101306
2016-12-03T08:08:29.950Z,101316
2016-12-03T08:09:28.738Z,101318
2016-12-03T08:10:30.098Z,101312
2016-12-03T08:11:30.166Z,101305
2016-12-03T08:12:30.230Z,101314
2016-12-03T08:13:28.899Z,101318
2016-12-03T08:14:30.362Z,101321
2016-12-03T08:15:29.134Z,101320
2016-12-03T08:16:30.485Z,101321
2016-12-03T08:17:30.509Z,101314
2016-12-03T08:18:30.605Z,101318
2016-12-03T08:19:30.652Z,101314
2016-12-03T08:20:29.390Z,101315
2016-12-03T08:21:30.758Z,101316
2016-12-03T08:22:30.731Z,101320
2016-12-03T08:23:29.415Z,101322
2016-12-03T08:24:29.460Z,101323
2016-12-03T08:25:30.787Z,101324
2016-12-03T08:26:30.810Z,101323
2016-12-03T08:27:30.927Z,101323
2016-12-03T08:28:29.565Z,101316
2016-12-03T08:29:29.625Z,101324
2016-12-03T08:30:30.991Z,101321
2016-12-03T08:31:31.146Z,101328
2016-12-03T08:32:29.898Z,101331
2016-12-03T08:33:29.950Z,101331
2016-12-03T08:34:31.394Z,101330
2016-12-03T08:35:30.064Z,101324
2016-12-03T08:36:30.153Z,101336
2016-12-03T08:37:31.532Z,101331
2016-12-03T08:38:31.565Z,101336
2016-12-03T08:39:30.260Z,101337
2016-12-03T08:40:31.684Z,101338
2016-12-03T08:41:30.343Z,101334
2016-12-03T08:42:31.702Z,101345
2016-12-03T08:43:31.816Z,101340
2016-12-03T08:44:30.533Z,101347
2016-12-03T08:45:31.968Z,101346
2016-12-03T08:46:30.639Z,101340
2016-12-03T08:47:32.011Z,101344
2016-12-03T08:48:30.731Z,101345
2016-12-03T08:49:32.106Z,101348
2016-12-03T08:50:30.739Z,101350
2016-12-03T08:51:30.785Z,101352
2016-12-03T08:52:31.499Z,101355
2016-12-03T08:53:30.860Z,101356
2016-12-03T08:54:30.917Z,101354
2016-12-03T08:55:32.391Z,101349
2016-12-03T08:56:31.129Z,101354
2016-12-03T08:57:32.531Z,101354
2016-12-03T08:58:32.530Z,101352
2016-12-03T08:59:32.599Z,101342
2016-12-03T09:00:31.331Z,101352
2016-12-03T09:01:32.692Z,101350
2016-12-03T09:02:31.384Z,101357
2016-12-03T09:03:32.752Z,101351
2016-12-03T09:04:32.801Z,101355
2016-12-03T09:05:31.513Z,101358
2016-12-03T09:06:31.621Z,101362
2016-12-03T09:07:33.005Z,101363
2016-12-03T09:08:32.993Z,101363
2016-12-03T09:09:33.084Z,101363
2016-12-03T09:10:34.875Z,101367
2016-12-03T09:11:31.861Z,101367
2016-12-03T09:12:31.948Z,101371
2016-12-03T09:13:31.994Z,101362
2016-12-03T09:14:32.041Z,101371
2016-12-03T09:15:32.181Z,101371
2016-12-03T09:16:33.629Z,101370
2016-12-03T09:17:32.306Z,101368
2016-12-03T09:18:33.638Z,101373
2016-12-03T09:19:33.635Z,101373
2016-12-03T09:20:33.726Z,101378
2016-12-03T09:21:33.872Z,101374
2016-12-03T09:22:32.516Z,101379
2016-12-03T09:23:32.631Z,101378
2016-12-03T09:24:33.914Z,101380
2016-12-03T09:25:32.613Z,101378
2016-12-03T09:26:32.639Z,101367
2016-12-03T09:27:32.668Z,101373
2016-12-03T09:28:34.090Z,101368
2016-12-03T09:29:34.103Z,101377
2016-12-03T09:30:34.121Z,101380
2016-12-03T09:31:34.784Z,101381
2016-12-03T09:32:34.244Z,101377
2016-12-03T09:33:32.951Z,101379
2016-12-03T09:34:34.280Z,101383
2016-12-03T09:35:34.412Z,101385
2016-12-03T09:36:33.125Z,101383
2016-12-03T09:37:33.180Z,101385
2016-12-03T09:38:33.219Z,101382
2016-12-03T09:39:33.271Z,101377
2016-12-03T09:40:34.756Z,101390
2016-12-03T09:41:33.399Z,101376
2016-12-03T09:42:33.461Z,101385
2016-12-03T09:43:34.845Z,101393
2016-12-03T09:44:34.898Z,101388
2016-12-03T09:45:34.934Z,101384
2016-12-03T09:46:35.043Z,101390
2016-12-03T09:47:35.052Z,101392
2016-12-03T09:48:33.692Z,101389
2016-12-03T09:49:36.151Z,101385
2016-12-03T09:50:33.791Z,101391
2016-12-03T09:51:33.849Z,101385
2016-12-03T09:52:33.877Z,101387
2016-12-03T09:53:33.911Z,101375
2016-12-03T09:54:35.327Z,101382
2016-12-03T09:55:33.982Z,101382
2016-12-03T09:56:35.391Z,101382
2016-12-03T09:57:35.468Z,101384
2016-12-03T09:58:35.507Z,101382
2016-12-03T09:59:35.542Z,101381
2016-12-03T10:00:34.259Z,101379
2016-12-03T10:01:35.676Z,101380
2016-12-03T10:02:35.749Z,101385
2016-12-03T10:03:34.412Z,101381
2016-12-03T10:04:35.878Z,101383
2016-12-03T10:05:34.515Z,101379
2016-12-03T10:06:35.962Z,101386
2016-12-03T10:07:35.986Z,101384
2016-12-03T10:08:34.712Z,101377
2016-12-03T10:09:34.780Z,101389
2016-12-03T10:10:34.878Z,101384
2016-12-03T10:11:34.887Z,101385
2016-12-03T10:12:34.949Z,101379
2016-12-03T10:13:36.374Z,101387
2016-12-03T10:14:35.003Z,101386
2016-12-03T10:15:36.415Z,101392
2016-12-03T10:16:35.060Z,101384
2016-12-03T10:17:35.150Z,101388
2016-12-03T10:18:35.163Z,101384
2016-12-03T10:19:36.558Z,101386
2016-12-03T10:20:35.269Z,101377
2016-12-03T10:21:36.681Z,101384
2016-12-03T10:22:35.348Z,101386
2016-12-03T10:23:36.758Z,101386
2016-12-03T10:24:35.462Z,101385
2016-12-03T10:25:35.586Z,101385
2016-12-03T10:26:36.967Z,101377
2016-12-03T10:27:37.105Z,101384
2016-12-03T10:28:37.114Z,101376
2016-12-03T10:29:37.215Z,101384
2016-12-03T10:30:35.874Z,101377
2016-12-03T10:31:37.263Z,101382
2016-12-03T10:32:36.072Z,101381
2016-12-03T10:33:36.099Z,101382
2016-12-03T10:34:37.503Z,101379
2016-12-03T10:35:38.157Z,101381
2016-12-03T10:36:36.205Z,101370
2016-12-03T10:37:36.310Z,101374
2016-12-03T10:38:36.353Z,101378
2016-12-03T10:39:36.443Z,101378
2016-12-03T10:40:36.460Z,101375
2016-12-03T10:41:36.564Z,101366
2016-12-03T10:42:37.929Z,101374
2016-12-03T10:43:36.623Z,101367
2016-12-03T10:44:38.067Z,101372
2016-12-03T10:45:36.780Z,101376
2016-12-03T10:46:36.745Z,101381
2016-12-03T10:47:36.866Z,101378
2016-12-03T10:48:36.866Z,101377
2016-12-03T10:49:38.275Z,101385
2016-12-03T10:50:38.350Z,101381
2016-12-03T10:51:37.071Z,101380
2016-12-03T10:52:38.554Z,101376
2016-12-03T10:53:38.539Z,101377
2016-12-03T10:54:38.674Z,101377
2016-12-03T10:55:37.362Z,101377
2016-12-03T10:56:37.433Z,101380
2016-12-03T10:57:38.858Z,101378
2016-12-03T10:58:38.921Z,101381
2016-12-03T10:59:37.662Z,101379
2016-12-03T11:00:37.750Z,101376
2016-12-03T11:01:37.799Z,101369
2016-12-03T11:02:37.835Z,101377
2016-12-03T11:03:37.874Z,101374
2016-12-03T11:04:37.857Z,101372
2016-12-03T11:05:37.882Z,101372
2016-12-03T11:06:38.659Z,101371
2016-12-03T11:07:38.047Z,101370
2016-12-03T11:08:38.084Z,101368
2016-12-03T11:09:39.520Z,101371
2016-12-03T11:10:39.549Z,101367
2016-12-03T11:11:39.597Z,101370
2016-12-03T11:12:38.291Z,101372
2016-12-03T11:13:39.723Z,101365
2016-12-03T11:14:38.370Z,101374
2016-12-03T11:15:39.722Z,101367
2016-12-03T11:16:39.825Z,101372
2016-12-03T11:17:39.897Z,101372
2016-12-03T11:18:39.890Z,101373
2016-12-03T11:19:40.032Z,101368
2016-12-03T11:20:38.686Z,101370
2016-12-03T11:21:40.052Z,101367
2016-12-03T11:22:40.048Z,101373
2016-12-03T11:23:38.791Z,101370
2016-12-03T11:24:38.806Z,101368
2016-12-03T11:25:38.860Z,101372
2016-12-03T11:26:40.258Z,101371
2016-12-03T11:27:38.884Z,101371
2016-12-03T11:28:38.980Z,101371
2016-12-03T11:29:39.107Z,101369
2016-12-03T11:30:39.133Z,101370
2016-12-03T11:31:40.542Z,101374
2016-12-03T11:32:40.607Z,101371
2016-12-03T11:33:40.627Z,101378
2016-12-03T11:34:40.648Z,101367
2016-12-03T11:35:39.418Z,101371
2016-12-03T11:36:39.480Z,101370
2016-12-03T11:37:40.907Z,101359
2016-12-03T11:38:39.553Z,101367
2016-12-03T11:39:40.940Z,101364
2016-12-03T11:40:41.040Z,101355
2016-12-03T11:41:41.006Z,101366
2016-12-03T11:42:41.032Z,101362
2016-12-03T11:43:41.053Z,101361
2016-12-03T11:44:39.771Z,101364
2016-12-03T11:45:41.211Z,101358
2016-12-03T11:46:39.890Z,101363
2016-12-03T11:47:41.333Z,101360
2016-12-03T11:48:40.055Z,101360
2016-12-03T11:49:40.099Z,101365
2016-12-03T11:50:41.489Z,101352
2016-12-03T11:51:41.571Z,101359
2016-12-03T11:52:40.270Z,101355
2016-12-03T11:53:40.279Z,101348
2016-12-03T11:54:40.388Z,101355
2016-12-03T11:55:40.478Z,101357
2016-12-03T11:56:41.839Z,101359
2016-12-03T11:57:41.901Z,101359
2016-12-03T11:58:41.915Z,101361
2016-12-03T11:59:41.934Z,101351
2016-12-03T12:00:40.630Z,101357
2016-12-03T12:01:40.660Z,101360
2016-12-03T12:02:42.035Z,101360
2016-12-03T12:03:42.173Z,101349
2016-12-03T12:04:40.886Z,101352
2016-12-03T12:05:42.320Z,101354
2016-12-03T12:06:40.959Z,101353
2016-12-03T12:07:42.368Z,101349
2016-12-03T12:08:40.987Z,101349
2016-12-03T12:09:41.035Z,101346
2016-12-03T12:10:42.437Z,101352
2016-12-03T12:11:41.193Z,101346
2016-12-03T12:12:42.478Z,101350
2016-12-03T12:13:42.567Z,101351
2016-12-03T12:14:42.579Z,101351
2016-12-03T12:15:42.591Z,101344
2016-12-03T12:16:41.255Z,101348
2016-12-03T12:17:42.694Z,101352
2016-12-03T12:18:41.354Z,101350
2016-12-03T12:19:42.728Z,101344
2016-12-03T12:20:42.805Z,101351
2016-12-03T12:21:42.842Z,101350
2016-12-03T12:22:42.920Z,101348
2016-12-03T12:23:41.596Z,101347
2016-12-03T12:24:42.967Z,101343
2016-12-03T12:25:41.671Z,101350
2016-12-03T12:26:43.151Z,101350
2016-12-03T12:27:41.887Z,101349
2016-12-03T12:28:41.975Z,101341